createdAt,value
2019-04-29T00:00:15.539Z,9.78
2019-04-29T00:02:44.852Z,10.48
2019-04-29T00:05:15.059Z,11.05
2019-04-29T00:07:44.409Z,10.88
2019-04-29T00:10:18.165Z,9.88
2019-04-29T00:12:47.457Z,8.78
2019-04-29T00:15:21.408Z,10.08
2019-04-29T00:17:52.336Z,9.90
2019-04-29T00:20:23.259Z,7.90
2019-04-29T00:22:52.605Z,7.87
2019-04-29T00:25:22.178Z,8.75
2019-04-29T00:27:51.480Z,8.48
2019-04-29T00:30:22.717Z,10.98
2019-04-29T00:32:52.330Z,9.30
2019-04-29T00:35:21.676Z,8.40
2019-04-29T00:37:58.819Z,9.33
2019-04-29T00:40:46.024Z,8.60
2019-04-29T00:43:23.030Z,9.30
2019-04-29T00:45:52.404Z,8.90
2019-04-29T00:48:21.685Z,9.30
2019-04-29T00:50:51.020Z,11.33
2019-04-29T00:53:20.318Z,11.78
2019-04-29T00:55:51.291Z,9.00
2019-04-29T00:58:20.620Z,8.90
2019-04-29T01:00:50.054Z,9.78
2019-04-29T01:03:19.334Z,9.33
2019-04-29T01:05:48.696Z,10.08
2019-04-29T01:08:18.069Z,8.08
2019-04-29T01:10:47.352Z,8.78
2019-04-29T01:13:56.011Z,9.05
2019-04-29T01:16:25.304Z,8.95
2019-04-29T01:18:54.600Z,9.15
2019-04-29T01:21:24.207Z,7.95
2019-04-29T01:23:53.828Z,9.20
2019-04-29T01:26:41.277Z,8.18
2019-04-29T01:29:12.232Z,7.90
2019-04-29T01:31:42.019Z,8.60
2019-04-29T01:34:15.717Z,7.70
2019-04-29T01:36:46.789Z,8.55
2019-04-29T01:39:16.851Z,10.05
2019-04-29T01:41:53.694Z,10.03
2019-04-29T01:44:24.663Z,9.90
2019-04-29T01:46:53.957Z,8.30
2019-04-29T01:49:23.292Z,9.33
2019-04-29T01:51:52.612Z,8.50
2019-04-29T01:54:21.914Z,8.43
2019-04-29T01:56:51.253Z,8.98
2019-04-29T01:59:23.491Z,9.40
2019-04-29T02:01:52.790Z,9.20
2019-04-29T02:04:22.340Z,8.55
2019-04-29T02:06:51.645Z,10.55
2019-04-29T02:09:28.504Z,8.68
2019-04-29T02:11:57.830Z,10.25
2019-04-29T02:14:27.133Z,9.00
2019-04-29T02:16:56.479Z,8.43
2019-04-29T02:19:26.143Z,8.60
2019-04-29T02:22:15.094Z,8.58
2019-04-29T02:24:46.038Z,8.48
2019-04-29T02:27:15.357Z,8.08
2019-04-29T02:29:44.715Z,7.20
2019-04-29T02:32:14.355Z,6.50
2019-04-29T02:34:43.663Z,7.15
2019-04-29T02:37:14.673Z,7.37
2019-04-29T02:39:45.634Z,7.50
2019-04-29T02:42:33.051Z,8.15
2019-04-29T02:45:04.056Z,8.73
2019-04-29T02:47:33.382Z,8.88
2019-04-29T02:50:02.744Z,7.72
2019-04-29T02:52:32.399Z,8.03
2019-04-29T02:55:03.348Z,9.95
2019-04-29T02:57:46.560Z,8.10
2019-04-29T03:00:34.127Z,7.42
2019-04-29T03:03:05.122Z,9.38
2019-04-29T03:05:39.804Z,9.20
2019-04-29T03:08:07.111Z,9.13
2019-04-29T03:10:36.468Z,9.65
2019-04-29T03:13:06.857Z,9.03
2019-04-29T03:15:40.855Z,10.05
2019-04-29T03:18:10.548Z,9.28
2019-04-29T03:20:57.151Z,11.03
2019-04-29T03:23:27.335Z,9.68
2019-04-29T03:25:56.649Z,9.20
2019-04-29T03:28:25.945Z,11.78
2019-04-29T03:30:55.298Z,9.73
2019-04-29T03:33:24.622Z,9.88
2019-04-29T03:35:53.906Z,10.90
2019-04-29T03:38:23.313Z,9.30
2019-04-29T03:40:52.629Z,8.78
2019-04-29T03:43:21.971Z,9.35
2019-04-29T03:45:51.303Z,9.15
2019-04-29T03:48:20.627Z,8.98
2019-04-29T03:50:49.933Z,9.73
2019-04-29T03:53:19.570Z,12.10
2019-04-29T03:55:50.849Z,10.15
2019-04-29T03:58:20.184Z,11.10
2019-04-29T04:00:51.152Z,9.20
2019-04-29T04:03:28.083Z,9.15
2019-04-29T04:06:08.935Z,9.40
2019-04-29T04:08:39.892Z,10.53
2019-04-29T04:11:09.213Z,9.15
2019-04-29T04:13:38.566Z,8.88
2019-04-29T04:16:10.202Z,9.58
2019-04-29T04:18:39.587Z,8.85
2019-04-29T04:21:08.941Z,9.05
2019-04-29T04:23:38.253Z,9.00
2019-04-29T04:26:07.563Z,9.73
2019-04-29T04:28:37.265Z,8.90
2019-04-29T04:31:07.233Z,8.20
2019-04-29T04:33:37.211Z,9.95
2019-04-29T04:36:06.537Z,10.55
2019-04-29T04:38:36.192Z,8.20
2019-04-29T04:41:07.143Z,9.05
2019-04-29T04:43:36.515Z,10.20
2019-04-29T04:46:05.813Z,7.95
2019-04-29T04:48:35.439Z,9.08
2019-04-29T04:51:04.800Z,12.05
2019-04-29T04:53:34.117Z,9.25
2019-04-29T04:56:03.428Z,11.40
2019-04-29T04:58:33.040Z,9.65
2019-04-29T05:01:02.354Z,11.28
2019-04-29T05:03:31.647Z,13.18
2019-04-29T05:06:01.357Z,10.70
2019-04-29T05:08:30.964Z,9.73
2019-04-29T05:11:00.260Z,13.28
2019-04-29T05:13:29.635Z,12.45
2019-04-29T05:15:58.958Z,11.55
2019-04-29T05:18:28.573Z,11.90
2019-04-29T05:20:58.388Z,12.18
2019-04-29T05:23:27.997Z,14.10
2019-04-29T05:25:57.324Z,11.12
2019-04-29T05:28:26.697Z,13.03
2019-04-29T05:30:56.007Z,11.60
2019-04-29T05:33:25.318Z,11.53
2019-04-29T05:36:01.396Z,10.15
2019-04-29T05:38:29.337Z,11.00
2019-04-29T05:40:58.634Z,10.50
2019-04-29T05:43:35.508Z,11.43
2019-04-29T05:46:12.534Z,12.13
2019-04-29T05:48:42.292Z,11.18
2019-04-29T05:51:31.517Z,13.72
2019-04-29T05:54:05.462Z,15.83
2019-04-29T05:56:34.782Z,16.12
2019-04-29T05:59:04.155Z,12.98
2019-04-29T06:01:33.503Z,11.75
2019-04-29T06:04:02.821Z,13.78
2019-04-29T06:06:32.476Z,13.28
2019-04-29T06:09:01.842Z,14.05
2019-04-29T06:11:31.158Z,15.55
2019-04-29T06:14:00.787Z,14.75
2019-04-29T06:16:30.143Z,14.80
2019-04-29T06:19:01.595Z,17.45
2019-04-29T06:21:30.902Z,16.40
2019-04-29T06:24:04.567Z,18.73
2019-04-29T06:26:31.322Z,17.23
2019-04-29T06:29:00.623Z,17.98
2019-04-29T06:31:29.992Z,19.07
2019-04-29T06:34:00.640Z,23.05
2019-04-29T06:36:30.355Z,20.52
2019-04-29T06:38:59.952Z,21.50
2019-04-29T06:41:29.272Z,23.15
2019-04-29T06:44:00.622Z,24.57
2019-04-29T06:46:29.654Z,22.48
2019-04-29T06:49:10.121Z,23.35
2019-04-29T06:51:30.034Z,25.85
2019-04-29T06:53:59.375Z,23.57
2019-04-29T06:56:28.715Z,35.15
2019-04-29T06:58:58.017Z,31.48
2019-04-29T07:01:27.530Z,39.53
2019-04-29T07:03:59.869Z,33.65
2019-04-29T07:06:27.883Z,29.45
2019-04-29T07:08:57.272Z,28.07
2019-04-29T07:11:26.591Z,29.90
2019-04-29T07:13:57.541Z,29.42
2019-04-29T07:16:31.635Z,31.52
2019-04-29T07:18:58.067Z,32.15
2019-04-29T07:21:27.375Z,32.85
2019-04-29T07:23:56.731Z,28.27
2019-04-29T07:26:26.050Z,26.75
2019-04-29T07:28:55.513Z,28.65
2019-04-29T07:31:28.133Z,26.48
2019-04-29T07:33:58.028Z,28.25
2019-04-29T07:36:27.174Z,30.35
2019-04-29T07:38:56.909Z,25.32
2019-04-29T07:41:26.472Z,24.72
2019-04-29T07:43:56.064Z,26.17
2019-04-29T07:46:27.218Z,25.97
2019-04-29T07:49:01.643Z,26.02
2019-04-29T07:51:28.288Z,26.12
2019-04-29T07:53:57.645Z,27.90
2019-04-29T07:56:27.276Z,25.00
2019-04-29T07:58:58.967Z,27.75
2019-04-29T08:01:28.033Z,24.47
2019-04-29T08:03:57.373Z,24.00
2019-04-29T08:06:27.621Z,26.45
2019-04-29T08:09:07.331Z,29.60
2019-04-29T08:11:32.709Z,25.52
2019-04-29T08:14:02.850Z,27.67
2019-04-29T08:16:32.230Z,26.15
2019-04-29T08:19:04.579Z,30.45
2019-04-29T08:21:32.864Z,25.95
2019-04-29T08:24:02.247Z,28.90
2019-04-29T08:26:33.634Z,27.90
2019-04-29T08:29:02.947Z,26.75
2019-04-29T08:31:32.299Z,27.95
2019-04-29T08:34:01.632Z,27.62
2019-04-29T08:36:30.967Z,27.15
2019-04-29T08:39:08.273Z,30.20
2019-04-29T08:41:31.427Z,27.52
2019-04-29T08:44:16.358Z,25.70
2019-04-29T08:46:51.711Z,26.23
2019-04-29T08:49:18.226Z,28.17
2019-04-29T08:51:47.559Z,23.38
2019-04-29T08:54:20.058Z,24.85
2019-04-29T08:57:02.593Z,25.68
2019-04-29T08:59:20.745Z,26.40
2019-04-29T09:01:50.470Z,25.52
2019-04-29T09:04:20.146Z,25.52
2019-04-29T09:06:49.501Z,27.27
2019-04-29T09:09:28.705Z,26.75
2019-04-29T09:11:50.018Z,26.93
2019-04-29T09:14:19.359Z,23.92
2019-04-29T09:16:48.682Z,26.93
2019-04-29T09:19:18.070Z,28.15
2019-04-29T09:21:49.027Z,26.48
2019-04-29T09:24:18.359Z,25.08
2019-04-29T09:26:49.382Z,27.65
2019-04-29T09:29:32.237Z,22.58
2019-04-29T09:32:06.534Z,24.23
2019-04-29T09:34:36.219Z,22.85
2019-04-29T09:37:05.597Z,24.40
2019-04-29T09:39:43.327Z,21.42
2019-04-29T09:42:30.749Z,21.17
2019-04-29T09:45:02.945Z,22.50
2019-04-29T09:47:32.971Z,25.57
2019-04-29T09:50:02.669Z,22.60
2019-04-29T09:52:32.033Z,24.55
2019-04-29T09:55:03.993Z,20.55
2019-04-29T09:57:34.331Z,21.82
2019-04-29T10:00:08.216Z,23.20
2019-04-29T10:02:50.924Z,22.95
2019-04-29T10:05:27.381Z,20.97
2019-04-29T10:07:56.715Z,22.45
2019-04-29T10:10:26.163Z,27.05
2019-04-29T10:12:56.006Z,21.93
2019-04-29T10:15:45.153Z,22.98
2019-04-29T10:18:24.907Z,20.97
2019-04-29T10:20:55.177Z,22.50
2019-04-29T10:23:24.581Z,20.23
2019-04-29T10:25:53.960Z,21.48
2019-04-29T10:28:23.286Z,23.18
2019-04-29T10:30:52.988Z,22.85
2019-04-29T10:33:23.158Z,20.97
2019-04-29T10:35:52.941Z,20.77
2019-04-29T10:38:22.249Z,21.40
2019-04-29T10:41:00.716Z,17.15
2019-04-29T10:43:37.348Z,18.00
2019-04-29T10:46:20.406Z,23.55
2019-04-29T10:48:59.196Z,18.85
2019-04-29T10:51:28.573Z,16.87
2019-04-29T10:53:58.231Z,19.65
2019-04-29T10:56:27.615Z,20.75
2019-04-29T10:58:57.065Z,18.05
2019-04-29T11:02:00.685Z,18.12
2019-04-29T11:04:19.108Z,18.45
2019-04-29T11:06:48.499Z,15.98
2019-04-29T11:09:22.553Z,18.90
2019-04-29T11:11:52.317Z,17.05
2019-04-29T11:14:24.650Z,19.48
2019-04-29T11:16:52.712Z,18.92
2019-04-29T11:19:22.058Z,18.17
2019-04-29T11:21:51.363Z,18.07
2019-04-29T11:24:34.294Z,17.25
2019-04-29T11:27:11.888Z,17.98
2019-04-29T11:29:39.060Z,18.35
2019-04-29T11:32:10.211Z,20.65
2019-04-29T11:34:48.328Z,19.23
2019-04-29T11:37:19.568Z,21.87
2019-04-29T11:39:50.234Z,20.23
2019-04-29T11:42:20.296Z,19.25
2019-04-29T11:44:49.838Z,20.70
2019-04-29T11:47:21.000Z,18.87
2019-04-29T11:49:52.040Z,17.17
2019-04-29T11:52:23.628Z,18.02
2019-04-29T11:54:52.774Z,20.82
2019-04-29T11:57:23.731Z,18.00
2019-04-29T11:59:54.749Z,17.35
2019-04-29T12:02:44.796Z,18.40
2019-04-29T12:05:04.166Z,17.35
2019-04-29T12:07:34.098Z,18.02
2019-04-29T12:10:06.512Z,17.95
2019-04-29T12:12:36.029Z,16.25
2019-04-29T12:15:25.200Z,14.78
2019-04-29T12:18:12.390Z,18.32
2019-04-29T12:20:52.440Z,17.50
2019-04-29T12:23:21.830Z,20.45
2019-04-29T12:25:51.137Z,18.48
2019-04-29T12:28:20.458Z,13.98
2019-04-29T12:30:51.485Z,14.53
2019-04-29T12:33:38.116Z,11.93
2019-04-29T12:36:09.892Z,13.83
2019-04-29T12:38:48.707Z,14.58
2019-04-29T12:41:21.305Z,17.07
2019-04-29T12:43:59.551Z,18.10
2019-04-29T12:46:43.182Z,17.80
2019-04-29T12:49:13.782Z,13.80
2019-04-29T12:51:43.358Z,14.73
2019-04-29T12:54:12.726Z,13.55
2019-04-29T12:56:43.068Z,13.25
2019-04-29T12:59:13.307Z,13.55
2019-04-29T13:01:58.845Z,15.83
2019-04-29T13:04:49.831Z,12.05
2019-04-29T13:07:18.448Z,12.15
2019-04-29T13:09:52.504Z,12.45
2019-04-29T13:12:21.815Z,12.00
2019-04-29T13:15:02.539Z,13.50
2019-04-29T13:17:30.470Z,14.07
2019-04-29T13:20:02.419Z,15.58
2019-04-29T13:22:31.925Z,12.90
2019-04-29T13:25:01.410Z,13.58
2019-04-29T13:27:30.772Z,11.48
2019-04-29T13:30:01.663Z,14.93
2019-04-29T13:32:31.538Z,10.93
2019-04-29T13:35:05.229Z,13.35
2019-04-29T13:37:34.817Z,11.60
2019-04-29T13:40:07.355Z,11.35
2019-04-29T13:42:37.255Z,12.65
2019-04-29T13:45:42.797Z,11.73
2019-04-29T13:47:50.721Z,11.80
2019-04-29T13:50:38.903Z,13.20
2019-04-29T13:52:55.753Z,13.55
2019-04-29T13:55:47.360Z,14.87
2019-04-29T13:57:56.431Z,13.62
2019-04-29T14:00:36.775Z,17.42
2019-04-29T14:03:11.690Z,13.35
2019-04-29T14:05:41.675Z,14.78
2019-04-29T14:08:10.402Z,14.78
2019-04-29T14:10:39.712Z,13.70
2019-04-29T14:13:15.134Z,14.75
2019-04-29T14:15:40.581Z,14.80
2019-04-29T14:18:11.595Z,15.53
2019-04-29T14:20:41.055Z,14.83
2019-04-29T14:23:10.728Z,13.43
2019-04-29T14:25:40.069Z,14.25
2019-04-29T14:28:09.388Z,15.75
2019-04-29T14:30:39.553Z,17.87
2019-04-29T14:33:10.125Z,16.30
2019-04-29T14:35:43.622Z,15.38
2019-04-29T14:38:12.215Z,17.98
2019-04-29T14:40:42.824Z,16.10
2019-04-29T14:43:32.160Z,14.68
2019-04-29T14:46:05.369Z,16.50
2019-04-29T14:48:47.983Z,14.83
2019-04-29T14:51:17.310Z,16.05
2019-04-29T14:53:56.164Z,17.17
2019-04-29T14:56:18.064Z,15.43
2019-04-29T14:58:47.514Z,14.60
2019-04-29T15:01:27.440Z,16.85
2019-04-29T15:03:58.425Z,13.43
2019-04-29T15:06:29.638Z,12.47
2019-04-29T15:08:59.262Z,13.88
2019-04-29T15:11:32.292Z,13.25
2019-04-29T15:14:03.148Z,11.63
2019-04-29T15:16:41.747Z,12.00
2019-04-29T15:19:31.597Z,12.70
2019-04-29T15:22:17.515Z,12.33
2019-04-29T15:24:50.025Z,11.10
2019-04-29T15:27:19.340Z,12.18
2019-04-29T15:29:48.728Z,13.80
2019-04-29T15:32:22.173Z,11.40
2019-04-29T15:34:49.824Z,11.30
2019-04-29T15:37:19.433Z,13.15
2019-04-29T15:39:48.752Z,11.57
2019-04-29T15:42:18.372Z,12.28
2019-04-29T15:44:51.570Z,14.25
2019-04-29T15:47:18.879Z,11.63
2019-04-29T15:49:51.039Z,12.45
2019-04-29T15:52:20.882Z,10.80
2019-04-29T15:54:52.746Z,12.53
2019-04-29T15:57:22.288Z,10.65
2019-04-29T15:59:58.499Z,13.43
2019-04-29T16:02:23.110Z,11.78
2019-04-29T16:05:04.763Z,15.90
2019-04-29T16:11:50.961Z,12.50
2019-04-29T16:14:22.211Z,12.58
2019-04-29T16:16:51.812Z,11.78
2019-04-29T16:19:21.229Z,13.35
2019-04-29T16:21:50.521Z,11.05
2019-04-29T16:24:37.459Z,13.93
2019-04-29T16:26:53.655Z,15.68
2019-04-29T16:29:22.912Z,11.97
2019-04-29T16:31:55.061Z,12.63
2019-04-29T16:34:24.793Z,11.93
2019-04-29T16:36:54.090Z,9.45
2019-04-29T16:39:23.441Z,10.08
2019-04-29T16:42:12.571Z,11.63
2019-04-29T16:44:42.578Z,14.65
2019-04-29T16:47:13.946Z,10.85
2019-04-29T16:49:44.131Z,11.75
2019-04-29T16:52:13.494Z,11.70
2019-04-29T16:54:42.798Z,9.88
2019-04-29T16:57:12.110Z,11.25
2019-04-29T16:59:41.450Z,11.43
2019-04-29T17:02:10.887Z,10.23
2019-04-29T17:04:40.210Z,9.65
2019-04-29T17:07:13.142Z,11.30
2019-04-29T17:09:48.902Z,9.33
2019-04-29T17:12:18.316Z,9.30
2019-04-29T17:15:02.854Z,11.40
2019-04-29T17:17:28.822Z,9.63
2019-04-29T17:19:54.790Z,10.50
2019-04-29T17:22:26.793Z,10.05
2019-04-29T17:24:55.387Z,8.78
2019-04-29T17:27:29.145Z,8.80
2019-04-29T17:30:07.661Z,9.18
2019-04-29T17:35:52.748Z,8.53
2019-04-29T17:38:25.092Z,8.55
2019-04-29T17:40:54.383Z,8.48
2019-04-29T17:46:47.176Z,12.37
2019-04-29T17:49:30.579Z,9.40
2019-04-29T17:52:02.920Z,9.73
2019-04-29T17:54:34.838Z,8.25
2019-04-29T17:57:26.447Z,9.00
2019-04-29T18:00:05.121Z,8.08
2019-04-29T18:02:52.496Z,9.10
2019-04-29T18:05:32.975Z,10.90
2019-04-29T18:08:01.704Z,9.80
2019-04-29T18:10:38.566Z,13.13
2019-04-29T18:13:06.737Z,11.60
2019-04-29T18:15:51.686Z,8.68
2019-04-29T18:18:16.945Z,10.15
2019-04-29T18:20:59.485Z,9.88
2019-04-29T18:23:37.604Z,10.15
2019-04-29T18:26:26.814Z,8.25
2019-04-29T18:29:03.315Z,9.18
2019-04-29T18:31:30.713Z,10.15
2019-04-29T18:33:59.671Z,10.28
2019-04-29T18:36:29.023Z,12.73
2019-04-29T18:38:58.325Z,11.08
2019-04-29T18:41:28.837Z,11.97
2019-04-29T18:44:03.055Z,11.63
2019-04-29T18:46:29.444Z,13.28
2019-04-29T18:49:02.977Z,11.50
2019-04-29T18:51:29.892Z,13.30
2019-04-29T18:53:59.193Z,11.00
2019-04-29T18:56:32.323Z,13.18
2019-04-29T18:58:59.595Z,10.50
2019-04-29T19:02:32.218Z,12.37
2019-04-29T19:05:02.910Z,11.35
2019-04-29T19:07:37.187Z,12.15
2019-04-29T19:10:07.679Z,12.70
2019-04-29T19:12:36.440Z,11.88
2019-04-29T19:15:11.516Z,16.45
2019-04-29T19:17:40.095Z,12.78
2019-04-29T19:20:13.023Z,13.18
2019-04-29T19:22:44.155Z,12.28
2019-04-29T19:25:15.416Z,14.20
2019-04-29T19:27:45.898Z,13.32
2019-04-29T19:30:20.874Z,14.83
2019-04-29T19:32:46.924Z,12.95
2019-04-29T19:35:17.191Z,15.20
2019-04-29T19:37:46.726Z,13.95
2019-04-29T19:40:16.158Z,14.15
2019-04-29T19:43:10.370Z,15.68
2019-04-29T19:45:37.642Z,13.98
2019-04-29T19:48:06.963Z,15.60
2019-04-29T19:50:36.790Z,14.58
2019-04-29T19:53:06.345Z,14.23
2019-04-29T19:55:41.807Z,14.53
2019-04-29T19:58:10.181Z,14.78
2019-04-29T20:00:39.576Z,15.83
2019-04-29T20:03:22.684Z,15.55
2019-04-29T20:05:46.003Z,17.42
2019-04-29T20:08:37.432Z,17.92
2019-04-29T20:10:50.655Z,17.67
2019-04-29T20:13:17.538Z,17.10
2019-04-29T20:15:57.236Z,16.75
2019-04-29T20:18:40.546Z,17.92
2019-04-29T20:21:24.875Z,19.73
2019-04-29T20:23:46.795Z,17.42
2019-04-29T20:27:19.007Z,19.52
2019-04-29T20:28:51.112Z,19.32
2019-04-29T20:31:22.224Z,20.05
2019-04-29T20:33:49.803Z,18.70
2019-04-29T20:36:37.450Z,20.90
2019-04-29T20:38:50.872Z,24.47
2019-04-29T20:41:36.765Z,20.77
2019-04-29T20:43:51.807Z,19.30
2019-04-29T20:46:21.193Z,20.43
2019-04-29T20:48:55.806Z,20.55
2019-04-29T20:51:23.323Z,17.02
2019-04-29T20:54:15.948Z,19.87
2019-04-29T20:56:40.975Z,18.02
2019-04-29T20:59:12.833Z,21.02
2019-04-29T21:01:44.662Z,19.17
2019-04-29T21:04:29.760Z,17.80
2019-04-29T21:06:59.433Z,18.95
2019-04-29T21:09:16.883Z,20.50
2019-04-29T21:12:00.122Z,18.12
2019-04-29T21:14:34.005Z,22.25
2019-04-29T21:17:02.321Z,18.90
2019-04-29T21:19:31.967Z,17.87
2019-04-29T21:22:01.315Z,18.87
2019-04-29T21:24:30.618Z,17.37
2019-04-29T21:26:59.942Z,15.98
2019-04-29T21:29:29.282Z,15.75
2019-04-29T21:32:01.614Z,17.02
2019-04-29T21:34:37.016Z,17.10
2019-04-29T21:37:06.637Z,16.75
2019-04-29T21:39:39.952Z,16.48
2019-04-29T21:42:10.947Z,13.38
2019-04-29T21:44:40.241Z,14.20
2019-04-29T21:47:09.849Z,15.40
2019-04-29T21:49:45.316Z,16.55
2019-04-29T21:52:10.523Z,15.65
2019-04-29T21:54:40.146Z,13.05
2019-04-29T21:57:09.501Z,14.45
2019-04-29T21:59:41.407Z,16.70
2019-04-29T22:02:12.855Z,14.68
2019-04-29T22:04:42.212Z,15.55
2019-04-29T22:07:11.879Z,13.30
2019-04-29T22:09:47.277Z,14.78
2019-04-29T22:12:14.112Z,13.93
2019-04-29T22:14:45.123Z,15.48
2019-04-29T22:17:15.281Z,14.23
2019-04-29T22:19:45.200Z,14.03
2019-04-29T22:22:14.755Z,14.70
2019-04-29T22:24:45.827Z,15.75
2019-04-29T22:27:16.180Z,15.30
2019-04-29T22:29:47.472Z,13.48
2019-04-29T22:32:19.301Z,14.03
2019-04-29T22:34:49.537Z,15.90
2019-04-29T22:37:20.857Z,15.58
2019-04-29T22:39:50.273Z,14.33
2019-04-29T22:42:32.972Z,14.95
2019-04-29T22:45:02.641Z,15.08
2019-04-29T22:47:31.910Z,14.47
2019-04-29T22:50:03.323Z,16.70
2019-04-29T22:52:32.350Z,14.90
2019-04-29T22:55:02.346Z,14.45
2019-04-29T22:57:31.968Z,15.08
2019-04-29T23:00:01.594Z,14.50
2019-04-29T23:02:30.939Z,14.85
2019-04-29T23:05:00.331Z,14.30
2019-04-29T23:07:29.902Z,14.98
2019-04-29T23:09:59.196Z,13.55
2019-04-29T23:12:28.611Z,14.15
2019-04-29T23:14:58.601Z,16.65
2019-04-29T23:17:28.423Z,13.85
2019-04-29T23:19:59.411Z,17.07
2019-04-29T23:22:30.354Z,17.40
2019-04-29T23:25:01.428Z,15.70
2019-04-29T23:27:31.051Z,17.77
2019-04-29T23:30:00.337Z,14.73
2019-04-29T23:32:29.701Z,14.78
2019-04-29T23:35:01.663Z,15.18
2019-04-29T23:37:30.380Z,14.35
2019-04-29T23:40:00.025Z,18.17
2019-04-29T23:42:29.363Z,15.85
2019-04-29T23:44:58.688Z,17.87
2019-04-29T23:47:27.975Z,16.10
2019-04-29T23:57:48.353Z,16.87
